Fatcat — WDA6645 — position and weather

sailwx.info

Track history (hours):
 
Tides and Currents Weather Stations Pressure Air Temp Water Temp Dewpoint Dewpoint Depression Visibility Wind Speed Wind Dir Waves Ship Positions

Fatcat

Owner: TAURUS MARINE, SAN FRANCISCO, CA. More information available from US FCC via Universal Licensing System and Coast Guard Vessel Documentation Center.

Last reported at 2017-Nov-18 01:35 UTC. Time now 2017-Nov-21 12:03 UTC.
Position N 37°46' W 122°23'.

Length 20 m; draft 3 m.

Type: Ship (hazmat cat A). MMSI: 366834640.

Date/timePositionNaut miles runAvg speedWind from/ knotsBaromVisibWave heightAir tempDewpointWater temp
2017-Nov-18 01:35N 37°46' W 122°23'0 0.1
2017-Nov-18 01:30N 37°46' W 122°23'2 3.3
2017-Nov-18 01:01N 37°45' W 122°23'0 0.0
2017-Nov-18 00:31N 37°45' W 122°23'0 0.0
2017-Nov-18 00:01N 37°45' W 122°23'1 1.3
2017-Nov-17 23:30N 37°45' W 122°22'3 5.6
2017-Nov-17 23:01N 37°48' W 122°21'2 4.9
2017-Nov-17 22:31N 37°49' W 122°19'1 1.3
2017-Nov-17 22:01N 37°49' W 122°19'1 1.5
2017-Nov-17 21:30N 37°49' W 122°20'0 0.0
2017-Nov-17 21:01N 37°49' W 122°20'0 0.0
2017-Nov-17 20:31N 37°49' W 122°20'0 0.0
2017-Nov-17 20:01N 37°49' W 122°20'0 0.0
2017-Nov-17 19:31N 37°49' W 122°20'0 0.0
2017-Nov-17 19:00N 37°49' W 122°20'0 0.0
2017-Nov-17 18:31N 37°49' W 122°20'0 0.0
2017-Nov-17 18:01N 37°49' W 122°20'0 0.0
2017-Nov-17 17:30N 37°49' W 122°20'0 0.0
2017-Nov-17 17:01N 37°49' W 122°20'0 0.1
2017-Nov-17 16:30N 37°49' W 122°20'0 0.1
2017-Nov-17 16:01N 37°49' W 122°20'0 0.0
2017-Nov-17 15:31N 37°49' W 122°20'0 0.0
2017-Nov-17 15:01N 37°49' W 122°20'0 0.0
2017-Nov-17 14:30N 37°49' W 122°20'0 0.8
2017-Nov-17 14:00N 37°49' W 122°21'3 6.2
2017-Nov-17 13:30N 37°47' W 122°23'0 0.0
2017-Nov-17 00:25N 37°46' W 122°23'2 5.6
2017-Nov-17 00:00N 37°48' W 122°21'1 2.4
2017-Nov-16 23:30N 37°49' W 122°20'0 0.0
2017-Nov-16 23:01N 37°49' W 122°20'0 0.0
2017-Nov-16 22:31N 37°49' W 122°20'0 0.0
2017-Nov-16 22:00N 37°49' W 122°20'0 0.0
2017-Nov-16 21:30N 37°49' W 122°20'0 0.0
2017-Nov-16 21:01N 37°49' W 122°20'0 0.0
2017-Nov-16 20:31N 37°49' W 122°20'1 2.2
2017-Nov-16 20:00N 37°49' W 122°19'0 0.2
2017-Nov-16 19:30N 37°49' W 122°19'1 2.4
2017-Nov-16 19:00N 37°49' W 122°20'0 0.4
2017-Nov-16 18:31N 37°49' W 122°20'0 0.0
2017-Nov-16 18:01N 37°49' W 122°20'0 0.0
2017-Nov-16 17:30N 37°49' W 122°20'0 0.0
2017-Nov-16 17:00N 37°49' W 122°20'0 0.0
2017-Nov-16 16:30N 37°49' W 122°20'0 0.0
2017-Nov-16 16:00N 37°49' W 122°20'0 0.0
2017-Nov-16 15:31N 37°49' W 122°20'1 1.5
2017-Nov-16 15:00N 37°49' W 122°19'1 1.4
2017-Nov-16 14:30N 37°49' W 122°19'2 3.7
2017-Nov-16 14:00N 37°48' W 122°21'3 5.3
2017-Nov-16 13:30N 37°46' W 122°23'0 0.0
2017-Nov-16 00:14N 37°46' W 122°23'1 4.1
2017-Nov-16 00:00N 37°47' W 122°22'3 5.2
2017-Nov-15 23:30N 37°49' W 122°20'0 0.0
2017-Nov-15 23:01N 37°49' W 122°20'0 0.1
2017-Nov-15 22:30N 37°49' W 122°20'0 0.0
2017-Nov-15 22:00N 37°49' W 122°20'1 2.0
2017-Nov-15 21:31N 37°50' W 122°21'1 2.0
2017-Nov-15 21:00N 37°49' W 122°20'0 1.0
2017-Nov-15 20:31N 37°49' W 122°21'0 0.6
2017-Nov-15 20:00N 37°49' W 122°20'0 0.4
2017-Nov-15 19:30N 37°49' W 122°20'0 0.0
2017-Nov-15 19:00N 37°49' W 122°20'0 0.0
2017-Nov-15 18:30N 37°49' W 122°20'0 0.0
2017-Nov-15 18:00N 37°49' W 122°20'0 0.0
2017-Nov-15 17:30N 37°49' W 122°20'0 0.4
2017-Nov-15 17:00N 37°49' W 122°20'0 0.4
2017-Nov-15 16:30N 37°49' W 122°20'0 0.0
2017-Nov-15 16:00N 37°49' W 122°20'0 0.0
2017-Nov-15 15:30N 37°49' W 122°20'0 0.1
2017-Nov-15 15:00N 37°49' W 122°20'0 0.1
2017-Nov-15 14:30N 37°49' W 122°20'1 1.2
2017-Nov-15 14:00N 37°49' W 122°21'3 6.1
2017-Nov-15 13:30N 37°46' W 122°23'0 0.0
2017-Nov-15 00:12N 37°46' W 122°23'1 3.7
2017-Nov-15 00:01N 37°47' W 122°22'3 5.6
2017-Nov-14 23:31N 37°49' W 122°20'0 0.0
2017-Nov-14 23:00N 37°49' W 122°20'0 0.0
2017-Nov-14 22:30N 37°49' W 122°20'0 0.0
2017-Nov-14 22:01N 37°49' W 122°20'0 0.0
2017-Nov-14 21:30N 37°49' W 122°20'0 0.0
2017-Nov-14 21:01N 37°49' W 122°20'0 0.0
2017-Nov-14 20:31N 37°49' W 122°20'0 0.0
2017-Nov-14 20:01N 37°49' W 122°20'0 0.0
2017-Nov-14 19:30N 37°49' W 122°20'0 0.0
2017-Nov-14 19:00N 37°49' W 122°20'0 0.0
2017-Nov-14 18:30N 37°49' W 122°20'0 0.6
2017-Nov-14 18:00N 37°49' W 122°20'0 0.3
2017-Nov-14 17:31N 37°49' W 122°20'1 2.5
2017-Nov-14 17:00N 37°49' W 122°19'1 1.6
2017-Nov-14 16:30N 37°49' W 122°19'1 1.1
2017-Nov-14 16:00N 37°49' W 122°19'0 0.4
2017-Nov-14 15:30N 37°49' W 122°19'1 2.0
2017-Nov-14 15:00N 37°49' W 122°20'1 1.1
2017-Nov-14 14:31N 37°49' W 122°20'0 0.9
2017-Nov-14 14:00N 37°49' W 122°21'3 5.8
2017-Nov-14 13:31N 37°47' W 122°23'0 0.0
2017-Nov-14 01:15N 37°46' W 122°23'0 0.8
2017-Nov-14 01:01N 37°46' W 122°23'0 0.1
2017-Nov-14 00:31N 37°46' W 122°23'2 3.6
2017-Nov-14 00:00N 37°48' W 122°22'2 3.4
2017-Nov-13 23:30N 37°49' W 122°20'1 1.5
2017-Nov-13 23:00N 37°49' W 122°19'1 1.2
2017-Nov-13 22:30N 37°49' W 122°19'1 2.6
2017-Nov-13 22:01N 37°49' W 122°20'3 0.1
2017-Nov-11 19:56N 37°46' W 122°23'2 4.8
2017-Nov-11 19:30N 37°48' W 122°21'1 2.6
2017-Nov-11 19:00N 37°49' W 122°20'0 0.6
2017-Nov-11 18:30N 37°49' W 122°20'0 0.0
2017-Nov-11 18:01N 37°49' W 122°20'0 0.0
2017-Nov-11 17:30N 37°49' W 122°20'0 0.0
2017-Nov-11 17:01N 37°49' W 122°20'0 0.0
2017-Nov-11 16:30N 37°49' W 122°20'0 0.0
2017-Nov-11 16:00N 37°49' W 122°20'0 0.3
2017-Nov-11 15:31N 37°49' W 122°20'0 0.0
2017-Nov-11 15:00N 37°49' W 122°20'0 0.0
2017-Nov-11 14:30N 37°49' W 122°20'0 0.0
2017-Nov-11 14:00N 37°49' W 122°20'0 0.0
2017-Nov-11 13:30N 37°49' W 122°20'3 5.3
2017-Nov-11 13:01N 37°47' W 122°22'1 0.1
2017-Nov-11 05:58N 37°46' W 122°23'2 5.3
2017-Nov-11 05:30N 37°49' W 122°21'1 2.7
2017-Nov-11 05:00N 37°50' W 122°22'4 7.1
2017-Nov-11 04:30N 37°47' W 122°23'1 2.0
2017-Nov-11 04:00N 37°46' W 122°22'3 7.0
2017-Nov-11 03:31N 37°42' W 122°21'3 6.3
2017-Nov-11 03:01N 37°40' W 122°19'3 5.7
2017-Nov-11 02:31N 37°37' W 122°17'3 5.5
2017-Nov-11 02:00N 37°35' W 122°15'3 5.2
2017-Nov-11 01:30N 37°34' W 122°12'2 4.3
2017-Nov-11 00:59N 37°31' W 122°12'1 1.5
2017-Nov-11 00:30N 37°31' W 122°13'0 0.3
2017-Nov-11 00:01N 37°31' W 122°13'0 0.0
2017-Nov-10 23:31N 37°31' W 122°13'0 0.1
2017-Nov-10 23:00N 37°31' W 122°13'0 0.1
2017-Nov-10 22:31N 37°31' W 122°13'0 0.2
2017-Nov-10 22:00N 37°31' W 122°13'0 0.1
2017-Nov-10 21:30N 37°31' W 122°13'0 0.0
2017-Nov-10 21:00N 37°31' W 122°13'0 0.0
2017-Nov-10 20:30N 37°31' W 122°13'0 0.2
2017-Nov-10 20:01N 37°31' W 122°13'0 0.1
2017-Nov-10 19:30N 37°31' W 122°13'0 0.1
2017-Nov-10 19:01N 37°31' W 122°13'3 5.7
2017-Nov-10 18:31N 37°34' W 122°12'3 6.9
2017-Nov-10 18:01N 37°36' W 122°16'3 6.7
2017-Nov-10 17:31N 37°38' W 122°18'3 6.7
2017-Nov-10 17:01N 37°41' W 122°20'3 6.6
2017-Nov-10 16:31N 37°44' W 122°22'2 4.8
2017-Nov-10 16:00N 37°46' W 122°23'0 0.0
2017-Nov-09 21:50N 37°46' W 122°23'1 1.9
2017-Nov-09 21:31N 37°46' W 122°23'1 2.7
2017-Nov-09 21:01N 37°45' W 122°22'3 6.7
2017-Nov-09 20:30N 37°48' W 122°21'2 4.6
2017-Nov-09 20:00N 37°49' W 122°19'1 2.0
2017-Nov-09 19:30N 37°49' W 122°20'3 6.4
2017-Nov-09 19:00N 37°46' W 122°21'1 2.8
2017-Nov-09 18:30N 37°45' W 122°22'0 0.0
2017-Nov-09 18:01N 37°45' W 122°22'0 0.0
2017-Nov-09 17:31N 37°45' W 122°22'0 0.0
2017-Nov-09 17:00N 37°45' W 122°22'0 0.0
2017-Nov-09 16:31N 37°45' W 122°22'0 0.0
2017-Nov-09 16:01N 37°45' W 122°22'0 0.0
2017-Nov-09 15:30N 37°45' W 122°22'0 0.0
2017-Nov-09 15:00N 37°45' W 122°22'0 0.1
2017-Nov-09 14:30N 37°45' W 122°22'1 2.9
2017-Nov-09 14:00N 37°46' W 122°23'1 0.0
2017-Nov-09 02:00N 37°46' W 122°23'2 4.0
2017-Nov-09 01:30N 37°48' W 122°24'1 2.2
2017-Nov-09 01:00N 37°49' W 122°25'0 0.0
2017-Nov-09 00:30N 37°49' W 122°25'0 0.0
2017-Nov-09 00:00N 37°49' W 122°25'1 2.0
2017-Nov-08 23:30N 37°49' W 122°24'4 7.6
2017-Nov-08 23:00N 37°45' W 122°22'0 0.7
2017-Nov-08 22:30N 37°45' W 122°22'0 0.0
2017-Nov-08 22:00N 37°45' W 122°22'0 0.0
2017-Nov-08 21:31N 37°45' W 122°22'0 0.0
2017-Nov-08 21:00N 37°45' W 122°22'0 0.0
2017-Nov-08 20:30N 37°45' W 122°22'0 0.0
2017-Nov-08 20:00N 37°45' W 122°22'0 0.0
2017-Nov-08 19:30N 37°45' W 122°22'0 0.0
2017-Nov-08 19:00N 37°45' W 122°22'0 0.0
2017-Nov-08 18:30N 37°45' W 122°22'3 5.1
2017-Nov-08 18:00N 37°47' W 122°22'3 5.4
2017-Nov-08 17:30N 37°50' W 122°21'2 4.2
2017-Nov-08 17:00N 37°49' W 122°19'2 3.4
2017-Nov-08 16:30N 37°49' W 122°21'2 3.3
2017-Nov-08 16:00N 37°49' W 122°19'1 2.1
2017-Nov-08 15:30N 37°49' W 122°20'0 0.2
2017-Nov-08 15:00N 37°49' W 122°20'0 0.1
2017-Nov-08 14:30N 37°49' W 122°20'0 0.0
2017-Nov-08 14:00N 37°49' W 122°20'0 0.7
2017-Nov-08 13:30N 37°49' W 122°20'3 6.3
2017-Nov-08 13:00N 37°46' W 122°23'  
Track history (hours):
 
Tides and Currents Weather Stations Pressure Air Temp Water Temp Dewpoint Dewpoint Depression Visibility Wind Speed Wind Dir Waves Ship Positions

Fatcat

Owner: TAURUS MARINE, SAN FRANCISCO, CA. More information available from US FCC via Universal Licensing System and Coast Guard Vessel Documentation Center.

Last reported at 2017-Nov-18 01:35 UTC. Time now 2017-Nov-21 12:03 UTC.
Position N 37°46' W 122°23'.

Length 20 m; draft 3 m.

Type: Ship (hazmat cat A). MMSI: 366834640.

Date/timePositionNaut miles runAvg speedWind from/ knotsBaromVisibWave heightAir tempDewpointWater temp
2017-Nov-18 01:35N 37°46' W 122°23'0 0.1
2017-Nov-18 01:30N 37°46' W 122°23'2 3.3
2017-Nov-18 01:01N 37°45' W 122°23'0 0.0
2017-Nov-18 00:31N 37°45' W 122°23'0 0.0
2017-Nov-18 00:01N 37°45' W 122°23'1 1.3
2017-Nov-17 23:30N 37°45' W 122°22'3 5.6
2017-Nov-17 23:01N 37°48' W 122°21'2 4.9
2017-Nov-17 22:31N 37°49' W 122°19'1 1.3
2017-Nov-17 22:01N 37°49' W 122°19'1 1.5
2017-Nov-17 21:30N 37°49' W 122°20'0 0.0
2017-Nov-17 21:01N 37°49' W 122°20'0 0.0
2017-Nov-17 20:31N 37°49' W 122°20'0 0.0
2017-Nov-17 20:01N 37°49' W 122°20'0 0.0
2017-Nov-17 19:31N 37°49' W 122°20'0 0.0
2017-Nov-17 19:00N 37°49' W 122°20'0 0.0
2017-Nov-17 18:31N 37°49' W 122°20'0 0.0
2017-Nov-17 18:01N 37°49' W 122°20'0 0.0
2017-Nov-17 17:30N 37°49' W 122°20'0 0.0
2017-Nov-17 17:01N 37°49' W 122°20'0 0.1
2017-Nov-17 16:30N 37°49' W 122°20'0 0.1
2017-Nov-17 16:01N 37°49' W 122°20'0 0.0
2017-Nov-17 15:31N 37°49' W 122°20'0 0.0
2017-Nov-17 15:01N 37°49' W 122°20'0 0.0
2017-Nov-17 14:30N 37°49' W 122°20'0 0.8
2017-Nov-17 14:00N 37°49' W 122°21'3 6.2
2017-Nov-17 13:30N 37°47' W 122°23'0 0.0
2017-Nov-17 00:25N 37°46' W 122°23'2 5.6
2017-Nov-17 00:00N 37°48' W 122°21'1 2.4
2017-Nov-16 23:30N 37°49' W 122°20'0 0.0
2017-Nov-16 23:01N 37°49' W 122°20'0 0.0
2017-Nov-16 22:31N 37°49' W 122°20'0 0.0
2017-Nov-16 22:00N 37°49' W 122°20'0 0.0
2017-Nov-16 21:30N 37°49' W 122°20'0 0.0
2017-Nov-16 21:01N 37°49' W 122°20'0 0.0
2017-Nov-16 20:31N 37°49' W 122°20'1 2.2
2017-Nov-16 20:00N 37°49' W 122°19'0 0.2
2017-Nov-16 19:30N 37°49' W 122°19'1 2.4
2017-Nov-16 19:00N 37°49' W 122°20'0 0.4
2017-Nov-16 18:31N 37°49' W 122°20'0 0.0
2017-Nov-16 18:01N 37°49' W 122°20'0 0.0
2017-Nov-16 17:30N 37°49' W 122°20'0 0.0
2017-Nov-16 17:00N 37°49' W 122°20'0 0.0
2017-Nov-16 16:30N 37°49' W 122°20'0 0.0
2017-Nov-16 16:00N 37°49' W 122°20'0 0.0
2017-Nov-16 15:31N 37°49' W 122°20'1 1.5
2017-Nov-16 15:00N 37°49' W 122°19'1 1.4
2017-Nov-16 14:30N 37°49' W 122°19'2 3.7
2017-Nov-16 14:00N 37°48' W 122°21'3 5.3
2017-Nov-16 13:30N 37°46' W 122°23'0 0.0
2017-Nov-16 00:14N 37°46' W 122°23'1 4.1
2017-Nov-16 00:00N 37°47' W 122°22'3 5.2
2017-Nov-15 23:30N 37°49' W 122°20'0 0.0
2017-Nov-15 23:01N 37°49' W 122°20'0 0.1
2017-Nov-15 22:30N 37°49' W 122°20'0 0.0
2017-Nov-15 22:00N 37°49' W 122°20'1 2.0
2017-Nov-15 21:31N 37°50' W 122°21'1 2.0
2017-Nov-15 21:00N 37°49' W 122°20'0 1.0
2017-Nov-15 20:31N 37°49' W 122°21'0 0.6
2017-Nov-15 20:00N 37°49' W 122°20'0 0.4
2017-Nov-15 19:30N 37°49' W 122°20'0 0.0
2017-Nov-15 19:00N 37°49' W 122°20'0 0.0
2017-Nov-15 18:30N 37°49' W 122°20'0 0.0
2017-Nov-15 18:00N 37°49' W 122°20'0 0.0
2017-Nov-15 17:30N 37°49' W 122°20'0 0.4
2017-Nov-15 17:00N 37°49' W 122°20'0 0.4
2017-Nov-15 16:30N 37°49' W 122°20'0 0.0
2017-Nov-15 16:00N 37°49' W 122°20'0 0.0
2017-Nov-15 15:30N 37°49' W 122°20'0 0.1
2017-Nov-15 15:00N 37°49' W 122°20'0 0.1
2017-Nov-15 14:30N 37°49' W 122°20'1 1.2
2017-Nov-15 14:00N 37°49' W 122°21'3 6.1
2017-Nov-15 13:30N 37°46' W 122°23'0 0.0
2017-Nov-15 00:12N 37°46' W 122°23'1 3.7
2017-Nov-15 00:01N 37°47' W 122°22'3 5.6
2017-Nov-14 23:31N 37°49' W 122°20'0 0.0
2017-Nov-14 23:00N 37°49' W 122°20'0 0.0
2017-Nov-14 22:30N 37°49' W 122°20'0 0.0
2017-Nov-14 22:01N 37°49' W 122°20'0 0.0
2017-Nov-14 21:30N 37°49' W 122°20'0 0.0
2017-Nov-14 21:01N 37°49' W 122°20'0 0.0
2017-Nov-14 20:31N 37°49' W 122°20'0 0.0
2017-Nov-14 20:01N 37°49' W 122°20'0 0.0
2017-Nov-14 19:30N 37°49' W 122°20'0 0.0
2017-Nov-14 19:00N 37°49' W 122°20'0 0.0
2017-Nov-14 18:30N 37°49' W 122°20'0 0.6
2017-Nov-14 18:00N 37°49' W 122°20'0 0.3
2017-Nov-14 17:31N 37°49' W 122°20'1 2.5
2017-Nov-14 17:00N 37°49' W 122°19'1 1.6
2017-Nov-14 16:30N 37°49' W 122°19'1 1.1
2017-Nov-14 16:00N 37°49' W 122°19'0 0.4
2017-Nov-14 15:30N 37°49' W 122°19'1 2.0
2017-Nov-14 15:00N 37°49' W 122°20'1 1.1
2017-Nov-14 14:31N 37°49' W 122°20'0 0.9
2017-Nov-14 14:00N 37°49' W 122°21'3 5.8
2017-Nov-14 13:31N 37°47' W 122°23'0 0.0
2017-Nov-14 01:15N 37°46' W 122°23'0 0.8
2017-Nov-14 01:01N 37°46' W 122°23'0 0.1
2017-Nov-14 00:31N 37°46' W 122°23'2 3.6
2017-Nov-14 00:00N 37°48' W 122°22'2 3.4
2017-Nov-13 23:30N 37°49' W 122°20'1 1.5
2017-Nov-13 23:00N 37°49' W 122°19'1 1.2
2017-Nov-13 22:30N 37°49' W 122°19'1 2.6
2017-Nov-13 22:01N 37°49' W 122°20'3 0.1
2017-Nov-11 19:56N 37°46' W 122°23'2 4.8
2017-Nov-11 19:30N 37°48' W 122°21'1 2.6
2017-Nov-11 19:00N 37°49' W 122°20'0 0.6
2017-Nov-11 18:30N 37°49' W 122°20'0 0.0
2017-Nov-11 18:01N 37°49' W 122°20'0 0.0
2017-Nov-11 17:30N 37°49' W 122°20'0 0.0
2017-Nov-11 17:01N 37°49' W 122°20'0 0.0
2017-Nov-11 16:30N 37°49' W 122°20'0 0.0
2017-Nov-11 16:00N 37°49' W 122°20'0 0.3
2017-Nov-11 15:31N 37°49' W 122°20'0 0.0
2017-Nov-11 15:00N 37°49' W 122°20'0 0.0
2017-Nov-11 14:30N 37°49' W 122°20'0 0.0
2017-Nov-11 14:00N 37°49' W 122°20'0 0.0
2017-Nov-11 13:30N 37°49' W 122°20'3 5.3
2017-Nov-11 13:01N 37°47' W 122°22'1 0.1
2017-Nov-11 05:58N 37°46' W 122°23'2 5.3
2017-Nov-11 05:30N 37°49' W 122°21'1 2.7
2017-Nov-11 05:00N 37°50' W 122°22'4 7.1
2017-Nov-11 04:30N 37°47' W 122°23'1 2.0
2017-Nov-11 04:00N 37°46' W 122°22'3 7.0
2017-Nov-11 03:31N 37°42' W 122°21'3 6.3
2017-Nov-11 03:01N 37°40' W 122°19'3 5.7
2017-Nov-11 02:31N 37°37' W 122°17'3 5.5
2017-Nov-11 02:00N 37°35' W 122°15'3 5.2
2017-Nov-11 01:30N 37°34' W 122°12'2 4.3
2017-Nov-11 00:59N 37°31' W 122°12'1 1.5
2017-Nov-11 00:30N 37°31' W 122°13'0 0.3
2017-Nov-11 00:01N 37°31' W 122°13'0 0.0
2017-Nov-10 23:31N 37°31' W 122°13'0 0.1
2017-Nov-10 23:00N 37°31' W 122°13'0 0.1
2017-Nov-10 22:31N 37°31' W 122°13'0 0.2
2017-Nov-10 22:00N 37°31' W 122°13'0 0.1
2017-Nov-10 21:30N 37°31' W 122°13'0 0.0
2017-Nov-10 21:00N 37°31' W 122°13'0 0.0
2017-Nov-10 20:30N 37°31' W 122°13'0 0.2
2017-Nov-10 20:01N 37°31' W 122°13'0 0.1
2017-Nov-10 19:30N 37°31' W 122°13'0 0.1
2017-Nov-10 19:01N 37°31' W 122°13'3 5.7
2017-Nov-10 18:31N 37°34' W 122°12'3 6.9
2017-Nov-10 18:01N 37°36' W 122°16'3 6.7
2017-Nov-10 17:31N 37°38' W 122°18'3 6.7
2017-Nov-10 17:01N 37°41' W 122°20'3 6.6
2017-Nov-10 16:31N 37°44' W 122°22'2 4.8
2017-Nov-10 16:00N 37°46' W 122°23'0 0.0
2017-Nov-09 21:50N 37°46' W 122°23'1 1.9
2017-Nov-09 21:31N 37°46' W 122°23'1 2.7
2017-Nov-09 21:01N 37°45' W 122°22'3 6.7
2017-Nov-09 20:30N 37°48' W 122°21'2 4.6
2017-Nov-09 20:00N 37°49' W 122°19'1 2.0
2017-Nov-09 19:30N 37°49' W 122°20'3 6.4
2017-Nov-09 19:00N 37°46' W 122°21'1 2.8
2017-Nov-09 18:30N 37°45' W 122°22'0 0.0
2017-Nov-09 18:01N 37°45' W 122°22'0 0.0
2017-Nov-09 17:31N 37°45' W 122°22'0 0.0
2017-Nov-09 17:00N 37°45' W 122°22'0 0.0
2017-Nov-09 16:31N 37°45' W 122°22'0 0.0
2017-Nov-09 16:01N 37°45' W 122°22'0 0.0
2017-Nov-09 15:30N 37°45' W 122°22'0 0.0
2017-Nov-09 15:00N 37°45' W 122°22'0 0.1
2017-Nov-09 14:30N 37°45' W 122°22'1 2.9
2017-Nov-09 14:00N 37°46' W 122°23'1 0.0
2017-Nov-09 02:00N 37°46' W 122°23'2 4.0
2017-Nov-09 01:30N 37°48' W 122°24'1 2.2
2017-Nov-09 01:00N 37°49' W 122°25'0 0.0
2017-Nov-09 00:30N 37°49' W 122°25'0 0.0
2017-Nov-09 00:00N 37°49' W 122°25'1 2.0
2017-Nov-08 23:30N 37°49' W 122°24'4 7.6
2017-Nov-08 23:00N 37°45' W 122°22'0 0.7
2017-Nov-08 22:30N 37°45' W 122°22'0 0.0
2017-Nov-08 22:00N 37°45' W 122°22'0 0.0
2017-Nov-08 21:31N 37°45' W 122°22'0 0.0
2017-Nov-08 21:00N 37°45' W 122°22'0 0.0
2017-Nov-08 20:30N 37°45' W 122°22'0 0.0
2017-Nov-08 20:00N 37°45' W 122°22'0 0.0
2017-Nov-08 19:30N 37°45' W 122°22'0 0.0
2017-Nov-08 19:00N 37°45' W 122°22'0 0.0
2017-Nov-08 18:30N 37°45' W 122°22'3 5.1
2017-Nov-08 18:00N 37°47' W 122°22'3 5.4
2017-Nov-08 17:30N 37°50' W 122°21'2 4.2
2017-Nov-08 17:00N 37°49' W 122°19'2 3.4
2017-Nov-08 16:30N 37°49' W 122°21'2 3.3
2017-Nov-08 16:00N 37°49' W 122°19'1 2.1
2017-Nov-08 15:30N 37°49' W 122°20'0 0.2
2017-Nov-08 15:00N 37°49' W 122°20'0 0.1
2017-Nov-08 14:30N 37°49' W 122°20'0 0.0
2017-Nov-08 14:00N 37°49' W 122°20'0 0.7
2017-Nov-08 13:30N 37°49' W 122°20'3 6.3
2017-Nov-08 13:00N 37°46' W 122°23'  

Dump ship's entire track history